createdAt,value
2023-04-24T00:00:10.591Z,8.80
2023-04-24T00:02:57.892Z,8.93
2023-04-24T00:05:28.404Z,9.02
2023-04-24T00:07:55.445Z,8.60
2023-04-24T00:10:22.884Z,9.75
2023-04-24T00:12:52.242Z,9.10
2023-04-24T00:15:19.599Z,9.07
2023-04-24T00:17:48.899Z,9.05
2023-04-24T00:20:16.280Z,8.35
2023-04-24T00:22:43.360Z,8.18
2023-04-24T00:25:10.718Z,8.38
2023-04-24T00:27:37.760Z,9.15
2023-04-24T00:30:05.771Z,7.63
2023-04-24T00:32:35.114Z,8.63
2023-04-24T00:35:02.494Z,7.95
2023-04-24T00:37:31.767Z,8.45
2023-04-24T00:39:59.183Z,8.40
2023-04-24T00:42:28.861Z,7.65
2023-04-24T00:44:57.687Z,7.80
2023-04-24T00:47:26.231Z,8.23
2023-04-24T00:49:53.551Z,7.47
2023-04-24T00:52:22.925Z,7.63
2023-04-24T00:54:50.289Z,6.97
2023-04-24T00:57:18.241Z,7.50
2023-04-24T00:59:46.267Z,7.47
2023-04-24T01:02:14.391Z,7.40
2023-04-24T01:04:42.513Z,8.05
2023-04-24T01:07:10.022Z,7.25
2023-04-24T01:09:42.034Z,7.20
2023-04-24T01:12:11.507Z,7.05
2023-04-24T01:14:41.573Z,7.10
2023-04-24T01:17:08.628Z,7.10
2023-04-24T01:19:38.221Z,7.43
2023-04-24T01:22:11.554Z,7.13
2023-04-24T01:24:39.089Z,6.88
2023-04-24T01:27:09.599Z,7.30
2023-04-24T01:29:40.239Z,7.30
2023-04-24T01:32:07.799Z,8.52
2023-04-24T01:34:38.168Z,7.78
2023-04-24T01:37:05.259Z,7.85
2023-04-24T01:39:35.388Z,7.45
2023-04-24T01:42:02.689Z,7.75
2023-04-24T01:44:30.772Z,7.10
2023-04-24T01:46:58.066Z,7.30
2023-04-24T01:49:25.418Z,7.03
2023-04-24T01:51:52.565Z,7.22
2023-04-24T01:54:20.014Z,6.80
2023-04-24T01:56:47.437Z,7.28
2023-04-24T01:59:16.573Z,8.18
2023-04-24T02:01:43.587Z,7.47
2023-04-24T02:04:15.574Z,7.30
2023-04-24T02:06:42.815Z,7.35
2023-04-24T02:09:10.164Z,7.10
2023-04-24T02:11:37.437Z,6.28
2023-04-24T02:14:05.975Z,5.70
2023-04-24T02:16:33.063Z,5.78
2023-04-24T02:19:00.503Z,5.60
2023-04-24T02:21:27.550Z,4.80
2023-04-24T02:23:57.598Z,5.35
2023-04-24T02:26:24.640Z,6.03
2023-04-24T02:28:52.136Z,5.32
2023-04-24T02:31:19.244Z,5.80
2023-04-24T02:33:46.628Z,5.20
2023-04-24T02:36:13.670Z,5.30
2023-04-24T02:38:41.158Z,7.32
2023-04-24T02:41:10.504Z,5.78
2023-04-24T02:43:37.810Z,5.20
2023-04-24T02:46:04.927Z,6.00
2023-04-24T02:48:32.316Z,5.90
2023-04-24T02:50:59.349Z,6.70
2023-04-24T02:53:26.716Z,6.20
2023-04-24T02:55:53.897Z,6.90
2023-04-24T02:58:21.205Z,7.40
2023-04-24T03:03:30.008Z,8.38
2023-04-24T03:05:57.823Z,7.72
2023-04-24T03:08:25.013Z,7.55
2023-04-24T03:10:52.324Z,7.35
2023-04-24T03:13:19.456Z,7.97
2023-04-24T03:15:46.778Z,8.85
2023-04-24T03:18:14.004Z,8.35
2023-04-24T03:20:41.378Z,7.50
2023-04-24T03:23:08.469Z,8.45
2023-04-24T03:25:40.231Z,8.25
2023-04-24T03:28:07.293Z,8.32
2023-04-24T03:30:34.696Z,8.00
2023-04-24T03:33:02.027Z,8.40
2023-04-24T03:35:29.347Z,9.20
2023-04-24T03:37:56.451Z,9.65
2023-04-24T03:40:23.814Z,9.63
2023-04-24T03:42:50.877Z,8.70
2023-04-24T03:45:22.938Z,8.57
2023-04-24T03:47:50.004Z,9.13
2023-04-24T03:50:17.399Z,8.68
2023-04-24T03:52:44.621Z,7.53
2023-04-24T03:55:12.110Z,8.43
2023-04-24T03:57:39.153Z,7.82
2023-04-24T04:00:12.547Z,8.07
2023-04-24T04:02:39.691Z,9.07
2023-04-24T04:05:11.837Z,8.55
2023-04-24T04:07:40.701Z,8.65
2023-04-24T04:10:08.543Z,8.68
2023-04-24T04:12:37.784Z,9.27
2023-04-24T04:15:05.450Z,9.32
2023-04-24T04:17:32.761Z,9.65
2023-04-24T04:20:00.111Z,10.10
2023-04-24T04:22:27.171Z,10.32
2023-04-24T04:24:56.692Z,9.30
2023-04-24T04:27:26.313Z,8.52
2023-04-24T04:29:53.692Z,8.73
2023-04-24T04:32:20.690Z,7.25
2023-04-24T04:34:50.719Z,7.68
2023-04-24T04:37:17.727Z,7.95
2023-04-24T04:39:47.556Z,8.48
2023-04-24T04:42:14.553Z,8.27
2023-04-24T04:44:41.914Z,8.07
2023-04-24T04:47:09.112Z,8.85
2023-04-24T04:49:36.405Z,7.95
2023-04-24T04:52:03.521Z,7.93
2023-04-24T04:54:30.825Z,8.13
2023-04-24T04:56:57.924Z,7.43
2023-04-24T04:59:25.237Z,7.72
2023-04-24T05:01:54.550Z,8.10
2023-04-24T05:04:22.188Z,7.80
2023-04-24T05:06:49.417Z,8.73
2023-04-24T05:09:17.042Z,7.55
2023-04-24T05:11:46.579Z,7.95
2023-04-24T05:14:13.932Z,8.38
2023-04-24T05:16:41.303Z,8.50
2023-04-24T05:19:08.681Z,9.50
2023-04-24T05:21:35.710Z,8.85
2023-04-24T05:24:03.197Z,11.70
2023-04-24T05:26:30.302Z,9.32
2023-04-24T05:28:57.611Z,8.30
2023-04-24T05:31:24.792Z,8.43
2023-04-24T05:33:52.165Z,9.25
2023-04-24T05:36:21.324Z,9.15
2023-04-24T05:38:48.658Z,10.57
2023-04-24T05:41:15.730Z,12.15
2023-04-24T05:43:45.588Z,12.88
2023-04-24T05:46:13.136Z,13.50
2023-04-24T05:48:40.481Z,12.07
2023-04-24T05:51:07.480Z,9.35
2023-04-24T05:53:34.992Z,8.13
2023-04-24T05:56:01.985Z,8.93
2023-04-24T05:58:31.809Z,9.25
2023-04-24T06:00:58.841Z,8.77
2023-04-24T06:03:26.248Z,8.40
2023-04-24T06:05:53.331Z,9.90
2023-04-24T06:08:20.705Z,10.63
2023-04-24T06:10:49.991Z,8.32
2023-04-24T06:13:17.311Z,8.98
2023-04-24T06:15:45.075Z,8.88
2023-04-24T06:18:12.516Z,7.80
2023-04-24T06:20:39.940Z,8.40
2023-04-24T06:23:07.298Z,8.45
2023-04-24T06:25:36.815Z,8.90
2023-04-24T06:28:04.193Z,8.25
2023-04-24T06:30:31.403Z,9.40
2023-04-24T06:33:05.879Z,8.88
2023-04-24T06:35:40.327Z,9.35
2023-04-24T06:38:07.765Z,9.60
2023-04-24T06:40:37.191Z,9.43
2023-04-24T06:43:09.086Z,8.98
2023-04-24T06:45:36.267Z,10.15
2023-04-24T06:48:06.156Z,15.32
2023-04-24T06:50:33.221Z,10.98
2023-04-24T06:53:00.531Z,9.75
2023-04-24T06:55:27.706Z,10.82
2023-04-24T06:57:55.112Z,9.10
2023-04-24T07:00:24.689Z,8.95
2023-04-24T07:02:52.119Z,8.90
2023-04-24T07:05:19.558Z,9.40
2023-04-24T07:07:49.442Z,8.52
2023-04-24T07:10:16.765Z,8.82
2023-04-24T07:12:46.725Z,9.07
2023-04-24T07:15:13.769Z,8.32
2023-04-24T07:17:41.110Z,7.68
2023-04-24T07:20:08.521Z,6.78
2023-04-24T07:22:35.879Z,5.25
2023-04-24T07:25:02.935Z,5.93
2023-04-24T07:27:30.381Z,5.55
2023-04-24T07:29:57.388Z,6.05
2023-04-24T07:32:24.685Z,6.10
2023-04-24T07:34:51.693Z,6.90
2023-04-24T07:37:19.215Z,7.93
2023-04-24T07:39:46.501Z,6.97
2023-04-24T07:42:13.891Z,8.63
2023-04-24T07:44:40.921Z,7.82
2023-04-24T07:47:08.949Z,8.90
2023-04-24T07:49:40.706Z,8.07
2023-04-24T07:52:08.157Z,8.50
2023-04-24T07:54:35.174Z,7.22
2023-04-24T07:57:04.894Z,7.13
2023-04-24T07:59:36.604Z,7.10
2023-04-24T08:02:06.892Z,5.93
2023-04-24T08:04:34.490Z,6.32
2023-04-24T08:07:02.225Z,6.57
2023-04-24T08:09:29.335Z,7.93
2023-04-24T08:11:57.110Z,11.98
2023-04-24T08:14:24.104Z,8.32
2023-04-24T08:16:54.915Z,8.25
2023-04-24T08:19:21.927Z,8.93
2023-04-24T08:21:49.336Z,8.35
2023-04-24T08:24:16.336Z,7.88
2023-04-24T08:26:43.857Z,7.47
2023-04-24T08:29:10.916Z,8.60
2023-04-24T08:31:38.392Z,9.25
2023-04-24T08:34:07.941Z,8.35
2023-04-24T08:36:46.626Z,7.60
2023-04-24T08:39:15.005Z,6.78
2023-04-24T08:41:43.996Z,6.18
2023-04-24T08:44:11.670Z,5.95
2023-04-24T08:46:43.604Z,5.68
2023-04-24T08:49:10.698Z,5.47
2023-04-24T08:51:38.707Z,5.57
2023-04-24T08:54:06.484Z,6.10
2023-04-24T08:56:38.117Z,5.78
2023-04-24T08:59:06.607Z,5.82
2023-04-24T09:01:38.374Z,6.72
2023-04-24T09:04:05.918Z,8.40
2023-04-24T09:06:36.159Z,5.20
2023-04-24T09:09:03.781Z,4.97
2023-04-24T09:11:32.592Z,6.25
2023-04-24T09:14:00.443Z,6.63
2023-04-24T09:16:30.686Z,6.88
2023-04-24T09:18:57.871Z,6.53
2023-04-24T09:21:25.338Z,7.03
2023-04-24T09:24:15.089Z,7.68
2023-04-24T09:26:45.549Z,6.57
2023-04-24T09:29:17.623Z,7.40
2023-04-24T09:31:48.051Z,6.75
2023-04-24T09:34:15.269Z,7.60
2023-04-24T09:36:47.747Z,7.93
2023-04-24T09:39:16.873Z,7.60
2023-04-24T09:41:52.296Z,7.10
2023-04-24T09:44:21.445Z,8.07
2023-04-24T09:46:54.794Z,9.82
2023-04-24T09:49:27.994Z,8.02
2023-04-24T09:52:09.649Z,7.60
2023-04-24T09:54:37.888Z,6.82
2023-04-24T09:57:05.683Z,6.38
2023-04-24T09:59:37.221Z,6.88
2023-04-24T10:02:18.642Z,6.35
2023-04-24T10:04:58.505Z,6.70
2023-04-24T10:07:29.101Z,7.10
2023-04-24T10:09:56.213Z,6.97
2023-04-24T10:12:25.134Z,7.13
2023-04-24T10:14:53.069Z,8.15
2023-04-24T10:17:25.625Z,7.25
2023-04-24T10:19:59.687Z,6.25
2023-04-24T10:22:27.831Z,7.40
2023-04-24T10:24:55.116Z,6.75
2023-04-24T10:27:26.428Z,6.22
2023-04-24T10:29:54.575Z,7.50
2023-04-24T10:32:21.994Z,8.18
2023-04-24T10:34:49.406Z,10.27
2023-04-24T10:37:19.827Z,10.23
2023-04-24T10:39:51.527Z,9.73
2023-04-24T10:42:19.135Z,12.25
2023-04-24T10:44:49.248Z,10.82
2023-04-24T10:47:18.858Z,13.82
2023-04-24T10:49:51.401Z,14.05
2023-04-24T10:52:18.809Z,14.65
2023-04-24T10:54:48.834Z,15.43
2023-04-24T10:57:19.029Z,12.70
2023-04-24T10:59:47.350Z,12.15
2023-04-24T11:02:37.693Z,11.75
2023-04-24T11:05:05.717Z,11.90
2023-04-24T11:08:11.061Z,11.88
2023-04-24T11:10:45.323Z,12.20
2023-04-24T11:13:16.176Z,11.85
2023-04-24T11:15:48.696Z,12.45
2023-04-24T11:18:16.516Z,12.90
2023-04-24T11:20:44.725Z,11.52
2023-04-24T11:23:14.128Z,11.68
2023-04-24T11:25:45.034Z,10.60
2023-04-24T11:28:16.205Z,10.65
2023-04-24T11:30:43.253Z,10.10
2023-04-24T11:33:10.658Z,8.80
2023-04-24T11:35:41.568Z,6.78
2023-04-24T11:38:24.064Z,5.65
2023-04-24T11:40:53.150Z,4.60
2023-04-24T11:43:21.040Z,3.95
2023-04-24T11:45:51.231Z,2.80
2023-04-24T11:48:23.611Z,2.30
2023-04-24T11:50:54.203Z,2.03
2023-04-24T11:53:21.813Z,2.67
2023-04-24T11:55:48.908Z,2.22
2023-04-24T11:58:21.429Z,2.40
2023-04-24T12:00:57.861Z,2.90
2023-04-24T12:03:27.949Z,2.63
2023-04-24T12:06:10.084Z,2.95
2023-04-24T12:08:42.142Z,3.70
2023-04-24T12:11:12.179Z,3.03
2023-04-24T12:13:42.158Z,3.05
2023-04-24T12:16:11.712Z,3.30
2023-04-24T12:18:46.271Z,2.63
2023-04-24T12:21:21.347Z,3.15
2023-04-24T12:23:50.389Z,3.33
2023-04-24T12:26:21.520Z,7.40
2023-04-24T12:28:50.403Z,6.53
2023-04-24T12:31:18.011Z,4.43
2023-04-24T12:33:45.399Z,2.92
2023-04-24T12:36:15.099Z,2.70
2023-04-24T12:38:45.431Z,3.05
2023-04-24T12:41:15.513Z,2.40
2023-04-24T12:43:55.552Z,4.90
2023-04-24T12:46:28.931Z,3.28
2023-04-24T12:48:58.880Z,2.55
2023-04-24T12:51:28.294Z,2.92
2023-04-24T12:53:56.669Z,2.92
2023-04-24T12:56:28.899Z,3.42
2023-04-24T12:58:58.658Z,2.67
2023-04-24T13:01:25.793Z,3.13
2023-04-24T13:03:58.651Z,2.80
2023-04-24T13:06:29.708Z,2.63
2023-04-24T13:09:05.391Z,3.25
2023-04-24T13:11:38.366Z,3.63
2023-04-24T13:14:13.447Z,3.45
2023-04-24T13:16:40.550Z,2.92
2023-04-24T13:19:15.856Z,2.97
2023-04-24T13:21:45.342Z,2.92
2023-04-24T13:24:12.681Z,2.40
2023-04-24T13:26:41.129Z,3.75
2023-04-24T13:29:08.470Z,4.65
2023-04-24T13:31:38.131Z,2.97
2023-04-24T13:34:05.413Z,2.88
2023-04-24T13:36:32.704Z,2.72
2023-04-24T13:39:06.218Z,3.10
2023-04-24T13:41:36.563Z,7.30
2023-04-24T13:44:05.056Z,7.72
2023-04-24T13:46:32.578Z,8.55
2023-04-24T13:49:00.338Z,8.15
2023-04-24T13:51:27.767Z,7.47
2023-04-24T13:53:57.810Z,6.97
2023-04-24T13:56:26.846Z,6.63
2023-04-24T13:58:56.928Z,8.20
2023-04-24T14:01:27.522Z,7.15
2023-04-24T14:03:56.982Z,7.30
2023-04-24T14:06:24.773Z,8.30
2023-04-24T14:08:54.496Z,9.98
2023-04-24T14:11:24.306Z,10.65
2023-04-24T14:13:55.703Z,9.70
2023-04-24T14:16:22.959Z,9.73
2023-04-24T14:18:50.373Z,6.70
2023-04-24T14:21:22.057Z,6.72
2023-04-24T14:23:49.435Z,8.02
2023-04-24T14:26:16.483Z,8.73
2023-04-24T14:28:43.854Z,9.82
2023-04-24T14:31:11.088Z,8.82
2023-04-24T14:33:42.299Z,7.70
2023-04-24T14:36:11.418Z,8.27
2023-04-24T14:38:38.752Z,7.13
2023-04-24T14:41:08.441Z,6.53
2023-04-24T14:43:37.604Z,5.53
2023-04-24T14:46:07.288Z,5.72
2023-04-24T14:48:34.639Z,4.88
2023-04-24T14:51:04.161Z,4.60
2023-04-24T14:53:31.489Z,4.53
2023-04-24T14:55:58.625Z,5.50
2023-04-24T14:58:26.062Z,4.43
2023-04-24T15:00:53.201Z,4.75
2023-04-24T15:03:25.161Z,4.45
2023-04-24T15:05:54.690Z,4.85
2023-04-24T15:08:22.066Z,5.43
2023-04-24T15:10:49.681Z,6.32
2023-04-24T15:13:17.036Z,8.90
2023-04-24T15:15:47.652Z,5.82
2023-04-24T15:18:15.019Z,6.13
2023-04-24T15:20:42.101Z,7.40
2023-04-24T15:23:10.438Z,5.97
2023-04-24T15:25:38.406Z,5.30
2023-04-24T15:28:05.864Z,4.90
2023-04-24T15:30:33.236Z,4.70
2023-04-24T15:33:01.788Z,5.28
2023-04-24T15:35:29.059Z,7.10
2023-04-24T15:37:57.172Z,7.13
2023-04-24T15:40:24.698Z,8.32
2023-04-24T15:42:54.355Z,7.82
2023-04-24T15:45:21.430Z,8.73
2023-04-24T15:47:52.028Z,10.32
2023-04-24T15:50:19.268Z,10.27
2023-04-24T15:52:46.613Z,11.80
2023-04-24T15:55:16.154Z,9.77
2023-04-24T15:57:43.676Z,10.68
2023-04-24T16:00:13.887Z,12.38
2023-04-24T16:02:41.488Z,13.25
2023-04-24T16:05:09.239Z,10.57
2023-04-24T16:07:40.665Z,11.52
2023-04-24T16:10:08.174Z,10.00
2023-04-24T16:12:35.600Z,10.55
2023-04-24T16:15:03.142Z,10.55
2023-04-24T16:17:30.553Z,9.93
2023-04-24T16:19:59.900Z,12.90
2023-04-24T16:22:27.308Z,12.02
2023-04-24T16:24:54.330Z,12.95
2023-04-24T16:27:21.806Z,14.40
2023-04-24T16:29:48.856Z,16.52
2023-04-24T16:32:18.751Z,15.48
2023-04-24T16:34:45.877Z,13.40
2023-04-24T16:37:13.299Z,12.70
2023-04-24T16:39:42.686Z,12.63
2023-04-24T16:42:10.049Z,11.63
2023-04-24T16:44:43.006Z,9.70
2023-04-24T16:47:12.800Z,9.13
2023-04-24T16:49:39.885Z,8.20
2023-04-24T16:52:07.679Z,8.02
2023-04-24T16:54:34.868Z,8.18
2023-04-24T16:57:07.383Z,9.77
2023-04-24T16:59:34.518Z,6.35
2023-04-24T17:02:01.966Z,2.78
2023-04-24T17:04:29.240Z,4.03
2023-04-24T17:06:56.749Z,3.08
2023-04-24T17:09:26.268Z,2.53
2023-04-24T17:11:56.067Z,3.10
2023-04-24T17:14:23.085Z,4.95
2023-04-24T17:16:50.601Z,4.72
2023-04-24T17:19:18.046Z,2.90
2023-04-24T17:21:47.858Z,8.63
2023-04-24T17:24:14.939Z,6.75
2023-04-24T17:26:44.884Z,3.17
2023-04-24T17:29:13.364Z,2.75
2023-04-24T17:31:45.118Z,3.20
2023-04-24T17:34:12.312Z,2.90
2023-04-24T17:36:42.336Z,2.40
2023-04-24T17:39:09.363Z,2.80
2023-04-24T17:41:36.754Z,2.70
2023-04-24T17:44:03.800Z,2.65
2023-04-24T17:46:31.213Z,2.63
2023-04-24T17:49:00.719Z,2.45
2023-04-24T17:51:28.098Z,2.00
2023-04-24T17:53:57.375Z,1.90
2023-04-24T17:56:24.774Z,1.88
2023-04-24T17:58:54.336Z,1.88
2023-04-24T18:01:21.786Z,2.15
2023-04-24T18:03:51.487Z,3.30
2023-04-24T18:06:18.892Z,7.05
2023-04-24T18:08:46.018Z,7.57
2023-04-24T18:11:13.572Z,7.28
2023-04-24T18:13:40.619Z,8.32
2023-04-24T18:16:08.039Z,14.52
2023-04-24T18:18:35.170Z,32.70
2023-04-24T18:21:02.536Z,9.13
2023-04-24T18:23:29.824Z,7.22
2023-04-24T18:25:59.623Z,6.40
2023-04-24T18:28:26.747Z,6.63
2023-04-24T18:30:54.171Z,6.78
2023-04-24T18:33:21.185Z,6.93
2023-04-24T18:35:48.666Z,7.05
2023-04-24T18:38:18.228Z,6.90
2023-04-24T18:40:48.203Z,13.10
2023-04-24T18:43:17.748Z,8.57
2023-04-24T18:45:47.460Z,7.47
2023-04-24T18:48:14.664Z,8.00
2023-04-24T18:50:44.289Z,9.25
2023-04-24T18:53:11.691Z,8.60
2023-04-24T18:55:38.994Z,8.95
2023-04-24T18:58:08.293Z,5.75
2023-04-24T19:00:35.833Z,5.15
2023-04-24T19:03:03.182Z,5.07
2023-04-24T19:05:30.864Z,4.03
2023-04-24T19:07:57.942Z,4.75
2023-04-24T19:10:28.138Z,4.65
2023-04-24T19:12:59.743Z,4.97
2023-04-24T19:15:27.102Z,3.97
2023-04-24T19:17:54.295Z,8.45
2023-04-24T19:20:21.728Z,6.65
2023-04-24T19:22:48.837Z,4.90
2023-04-24T19:25:16.215Z,5.15
2023-04-24T19:27:45.744Z,5.22
2023-04-24T19:30:13.309Z,5.47
2023-04-24T19:32:40.477Z,5.53
2023-04-24T19:35:08.360Z,5.85
2023-04-24T19:37:38.544Z,6.97
2023-04-24T19:40:07.027Z,4.88
2023-04-24T19:42:43.214Z,5.30
2023-04-24T19:45:14.348Z,5.15
2023-04-24T19:47:44.083Z,5.15
2023-04-24T19:50:12.720Z,4.80
2023-04-24T19:52:44.296Z,5.35
2023-04-24T19:55:11.675Z,5.43
2023-04-24T19:57:41.188Z,4.93
2023-04-24T20:00:09.302Z,5.80
2023-04-24T20:02:36.592Z,5.57
2023-04-24T20:05:05.358Z,4.47
2023-04-24T20:07:34.826Z,5.22
2023-04-24T20:10:02.411Z,5.22
2023-04-24T20:12:29.484Z,4.97
2023-04-24T20:14:56.847Z,4.88
2023-04-24T20:17:23.990Z,4.35
2023-04-24T20:19:51.333Z,5.03
2023-04-24T20:22:20.742Z,4.22
2023-04-24T20:24:48.089Z,3.83
2023-04-24T20:27:17.718Z,3.97
2023-04-24T20:29:45.082Z,3.00
2023-04-24T20:32:12.132Z,3.38
2023-04-24T20:34:41.968Z,3.00
2023-04-24T20:37:09.033Z,3.70
2023-04-24T20:39:36.425Z,3.35
2023-04-24T20:42:03.544Z,3.20
2023-04-24T20:44:31.488Z,3.17
2023-04-24T20:47:01.059Z,2.70
2023-04-24T20:49:28.450Z,3.03
2023-04-24T20:51:55.587Z,3.33
2023-04-24T20:54:22.945Z,3.13
2023-04-24T20:56:50.021Z,19.02
2023-04-24T20:59:17.475Z,6.80
2023-04-24T21:01:44.555Z,3.30
2023-04-24T21:04:11.924Z,3.95
2023-04-24T21:06:41.388Z,3.10
2023-04-24T21:09:08.769Z,3.10
2023-04-24T21:11:35.815Z,3.38
2023-04-24T21:14:05.634Z,3.38
2023-04-24T21:16:33.730Z,3.28
2023-04-24T21:19:01.150Z,3.33
2023-04-24T21:21:30.399Z,3.63
2023-04-24T21:23:57.787Z,4.00
2023-04-24T21:26:27.494Z,3.35
2023-04-24T21:28:57.054Z,3.47
2023-04-24T21:31:26.353Z,3.75
2023-04-24T21:33:53.778Z,3.58
2023-04-24T21:36:20.790Z,3.90
2023-04-24T21:38:48.105Z,3.83
2023-04-24T21:41:19.817Z,3.83
2023-04-24T21:43:48.410Z,3.65
2023-04-24T21:46:17.742Z,3.88
2023-04-24T21:48:45.372Z,10.60
2023-04-24T21:51:12.406Z,3.97
2023-04-24T21:53:39.739Z,3.92
2023-04-24T21:56:09.357Z,3.40
2023-04-24T21:58:37.115Z,3.70
2023-04-24T22:01:04.264Z,3.53
2023-04-24T22:03:32.379Z,2.90
2023-04-24T22:06:06.755Z,2.53
2023-04-24T22:08:36.396Z,2.30
2023-04-24T22:11:05.689Z,2.20
2023-04-24T22:13:36.388Z,1.98
2023-04-24T22:16:03.504Z,2.00
2023-04-24T22:18:46.126Z,2.10
2023-04-24T22:21:14.421Z,1.80
2023-04-24T22:23:41.793Z,1.92
2023-04-24T22:26:08.797Z,2.28
2023-04-24T22:28:36.211Z,2.20
2023-04-24T22:31:03.671Z,2.75
2023-04-24T22:33:33.341Z,2.33
2023-04-24T22:36:00.348Z,2.63
2023-04-24T22:38:29.941Z,2.53
2023-04-24T22:40:56.996Z,2.40
2023-04-24T22:43:24.474Z,2.50
2023-04-24T22:45:51.490Z,2.30
2023-04-24T22:48:18.807Z,2.40
2023-04-24T22:50:45.831Z,2.47
2023-04-24T22:53:13.192Z,2.55
2023-04-24T22:55:40.262Z,2.10
2023-04-24T22:58:10.079Z,2.38
2023-04-24T23:00:37.212Z,2.17
2023-04-24T23:03:04.814Z,2.05
2023-04-24T23:05:31.944Z,1.98
2023-04-24T23:07:59.359Z,2.08
2023-04-24T23:10:26.423Z,1.98
2023-04-24T23:12:56.291Z,1.98
2023-04-24T23:15:23.338Z,2.08
2023-04-24T23:17:50.755Z,2.45
2023-04-24T23:20:17.857Z,2.00
2023-04-24T23:22:45.334Z,1.98
2023-04-24T23:25:12.457Z,4.47
2023-04-24T23:27:42.241Z,3.75
2023-04-24T23:30:09.516Z,3.08
2023-04-24T23:32:36.818Z,1.90
2023-04-24T23:35:04.013Z,2.08
2023-04-24T23:37:31.323Z,1.88
2023-04-24T23:40:00.762Z,1.92
2023-04-24T23:42:28.080Z,1.88
2023-04-24T23:44:57.310Z,1.80
2023-04-24T23:47:24.655Z,2.00
2023-04-24T23:49:51.692Z,1.92
2023-04-24T23:52:21.556Z,2.22
2023-04-24T23:54:48.677Z,2.08
2023-04-24T23:57:16.039Z,2.22
2023-04-24T23:59:43.054Z,2.33
